sensor_id;sensor_type;location;lat;lon;timestamp;P1;durP1;ratioP1;P2;durP2;ratioP2
69979;SDS011;57318;56.232;43.944;2023-04-21T00:00:57;5.30;;;3.05;;
69979;SDS011;57318;56.232;43.944;2023-04-21T00:03:24;5.80;;;3.08;;
69979;SDS011;57318;56.232;43.944;2023-04-21T00:05:52;5.82;;;3.15;;
69979;SDS011;57318;56.232;43.944;2023-04-21T00:08:20;4.97;;;3.03;;
69979;SDS011;57318;56.232;43.944;2023-04-21T00:10:46;4.72;;;3.13;;
69979;SDS011;57318;56.232;43.944;2023-04-21T00:13:12;5.63;;;3.33;;
69979;SDS011;57318;56.232;43.944;2023-04-21T00:15:38;5.63;;;2.95;;
69979;SDS011;57318;56.232;43.944;2023-04-21T00:18:04;5.63;;;3.33;;
69979;SDS011;57318;56.232;43.944;2023-04-21T00:20:30;6.95;;;3.25;;
69979;SDS011;57318;56.232;43.944;2023-04-21T00:22:57;6.53;;;3.40;;
69979;SDS011;57318;56.232;43.944;2023-04-21T00:25:23;7.13;;;3.22;;
69979;SDS011;57318;56.232;43.944;2023-04-21T00:27:50;4.85;;;3.20;;
69979;SDS011;57318;56.232;43.944;2023-04-21T00:30:15;6.63;;;3.50;;
69979;SDS011;57318;56.232;43.944;2023-04-21T00:32:42;4.45;;;2.70;;
69979;SDS011;57318;56.232;43.944;2023-04-21T00:35:08;6.70;;;3.58;;
69979;SDS011;57318;56.232;43.944;2023-04-21T00:37:34;5.13;;;2.90;;
69979;SDS011;57318;56.232;43.944;2023-04-21T00:40:00;5.50;;;3.30;;
69979;SDS011;57318;56.232;43.944;2023-04-21T00:42:26;6.50;;;3.30;;
69979;SDS011;57318;56.232;43.944;2023-04-21T00:44:52;4.63;;;2.60;;
69979;SDS011;57318;56.232;43.944;2023-04-21T00:47:18;3.73;;;2.70;;
69979;SDS011;57318;56.232;43.944;2023-04-21T00:49:44;4.60;;;3.00;;
69979;SDS011;57318;56.232;43.944;2023-04-21T00:54:37;7.15;;;3.33;;
69979;SDS011;57318;56.232;43.944;2023-04-21T00:57:03;6.07;;;2.92;;
69979;SDS011;57318;56.232;43.944;2023-04-21T00:59:31;7.78;;;3.63;;
69979;SDS011;57318;56.232;43.944;2023-04-21T01:01:57;5.57;;;3.45;;
69979;SDS011;57318;56.232;43.944;2023-04-21T01:04:23;5.37;;;3.30;;
69979;SDS011;57318;56.232;43.944;2023-04-21T01:06:49;13.30;;;3.83;;
69979;SDS011;57318;56.232;43.944;2023-04-21T01:09:16;6.80;;;3.35;;
69979;SDS011;57318;56.232;43.944;2023-04-21T01:11:41;15.93;;;3.63;;
69979;SDS011;57318;56.232;43.944;2023-04-21T01:14:24;14.38;;;3.60;;
69979;SDS011;57318;56.232;43.944;2023-04-21T01:16:50;5.88;;;3.28;;
69979;SDS011;57318;56.232;43.944;2023-04-21T01:19:16;8.95;;;3.20;;
69979;SDS011;57318;56.232;43.944;2023-04-21T01:21:44;10.77;;;3.47;;
69979;SDS011;57318;56.232;43.944;2023-04-21T01:24:10;6.50;;;3.13;;
69979;SDS011;57318;56.232;43.944;2023-04-21T01:26:37;6.32;;;3.00;;
69979;SDS011;57318;56.232;43.944;2023-04-21T01:29:03;8.00;;;2.97;;
69979;SDS011;57318;56.232;43.944;2023-04-21T01:31:29;13.03;;;3.03;;
69979;SDS011;57318;56.232;43.944;2023-04-21T01:33:55;5.57;;;3.20;;
69979;SDS011;57318;56.232;43.944;2023-04-21T01:36:20;7.97;;;2.83;;
69979;SDS011;57318;56.232;43.944;2023-04-21T01:38:46;5.33;;;3.83;;
69979;SDS011;57318;56.232;43.944;2023-04-21T01:41:12;4.37;;;3.23;;
69979;SDS011;57318;56.232;43.944;2023-04-21T01:43:37;4.50;;;3.30;;
69979;SDS011;57318;56.232;43.944;2023-04-21T01:46:04;4.30;;;3.17;;
69979;SDS011;57318;56.232;43.944;2023-04-21T01:48:30;6.25;;;3.88;;
69979;SDS011;57318;56.232;43.944;2023-04-21T01:50:56;8.07;;;4.50;;
69979;SDS011;57318;56.232;43.944;2023-04-21T01:53:22;7.20;;;4.73;;
69979;SDS011;57318;56.232;43.944;2023-04-21T01:55:47;6.50;;;4.83;;
69979;SDS011;57318;56.232;43.944;2023-04-21T01:58:13;10.03;;;5.10;;
69979;SDS011;57318;56.232;43.944;2023-04-21T02:00:39;14.03;;;5.27;;
69979;SDS011;57318;56.232;43.944;2023-04-21T02:03:04;10.83;;;5.80;;
69979;SDS011;57318;56.232;43.944;2023-04-21T02:05:30;11.87;;;6.10;;
69979;SDS011;57318;56.232;43.944;2023-04-21T02:07:56;10.47;;;6.73;;
69979;SDS011;57318;56.232;43.944;2023-04-21T02:10:22;14.77;;;7.60;;
69979;SDS011;57318;56.232;43.944;2023-04-21T02:12:47;16.23;;;7.30;;
69979;SDS011;57318;56.232;43.944;2023-04-21T02:15:14;17.73;;;7.18;;
69979;SDS011;57318;56.232;43.944;2023-04-21T02:17:59;15.55;;;8.32;;
69979;SDS011;57318;56.232;43.944;2023-04-21T02:20:25;19.60;;;8.03;;
69979;SDS011;57318;56.232;43.944;2023-04-21T02:22:51;16.00;;;8.50;;
69979;SDS011;57318;56.232;43.944;2023-04-21T02:25:16;18.10;;;8.10;;
69979;SDS011;57318;56.232;43.944;2023-04-21T02:27:42;15.05;;;7.93;;
69979;SDS011;57318;56.232;43.944;2023-04-21T02:30:08;18.93;;;7.90;;
69979;SDS011;57318;56.232;43.944;2023-04-21T02:32:35;14.50;;;7.55;;
69979;SDS011;57318;56.232;43.944;2023-04-21T02:35:00;20.40;;;8.53;;
69979;SDS011;57318;56.232;43.944;2023-04-21T02:37:26;15.97;;;7.87;;
69979;SDS011;57318;56.232;43.944;2023-04-21T02:39:52;18.58;;;7.95;;
69979;SDS011;57318;56.232;43.944;2023-04-21T02:42:18;25.40;;;7.87;;
69979;SDS011;57318;56.232;43.944;2023-04-21T02:44:44;19.23;;;7.80;;
69979;SDS011;57318;56.232;43.944;2023-04-21T02:47:09;12.10;;;7.17;;
69979;SDS011;57318;56.232;43.944;2023-04-21T02:49:39;15.03;;;7.77;;
69979;SDS011;57318;56.232;43.944;2023-04-21T02:52:07;16.63;;;7.65;;
69979;SDS011;57318;56.232;43.944;2023-04-21T02:54:33;13.85;;;7.13;;
69979;SDS011;57318;56.232;43.944;2023-04-21T02:56:59;13.37;;;7.63;;
69979;SDS011;57318;56.232;43.944;2023-04-21T02:59:26;13.73;;;6.97;;
69979;SDS011;57318;56.232;43.944;2023-04-21T03:01:52;14.90;;;7.13;;
69979;SDS011;57318;56.232;43.944;2023-04-21T03:04:17;16.63;;;7.97;;
69979;SDS011;57318;56.232;43.944;2023-04-21T03:06:43;16.73;;;7.05;;
69979;SDS011;57318;56.232;43.944;2023-04-21T03:09:09;24.33;;;7.43;;
69979;SDS011;57318;56.232;43.944;2023-04-21T03:11:35;18.98;;;6.95;;
69979;SDS011;57318;56.232;43.944;2023-04-21T03:14:01;25.73;;;6.97;;
69979;SDS011;57318;56.232;43.944;2023-04-21T03:16:26;14.37;;;6.83;;
69979;SDS011;57318;56.232;43.944;2023-04-21T03:18:53;18.98;;;6.72;;
69979;SDS011;57318;56.232;43.944;2023-04-21T03:21:19;19.63;;;6.97;;
69979;SDS011;57318;56.232;43.944;2023-04-21T03:23:45;17.07;;;6.43;;
69979;SDS011;57318;56.232;43.944;2023-04-21T03:26:10;16.30;;;6.50;;
69979;SDS011;57318;56.232;43.944;2023-04-21T03:28:36;28.97;;;6.97;;
69979;SDS011;57318;56.232;43.944;2023-04-21T03:31:02;20.33;;;6.87;;
69979;SDS011;57318;56.232;43.944;2023-04-21T03:33:28;13.37;;;6.47;;
69979;SDS011;57318;56.232;43.944;2023-04-21T03:35:53;13.20;;;5.80;;
69979;SDS011;57318;56.232;43.944;2023-04-21T03:38:19;14.47;;;6.00;;
69979;SDS011;57318;56.232;43.944;2023-04-21T03:40:45;16.00;;;5.77;;
69979;SDS011;57318;56.232;43.944;2023-04-21T03:43:10;13.93;;;6.33;;
69979;SDS011;57318;56.232;43.944;2023-04-21T03:45:36;10.67;;;5.80;;
69979;SDS011;57318;56.232;43.944;2023-04-21T03:48:02;20.27;;;5.73;;
69979;SDS011;57318;56.232;43.944;2023-04-21T03:50:28;13.93;;;5.37;;
69979;SDS011;57318;56.232;43.944;2023-04-21T03:52:54;11.10;;;5.53;;
69979;SDS011;57318;56.232;43.944;2023-04-21T03:55:20;11.60;;;5.07;;
69979;SDS011;57318;56.232;43.944;2023-04-21T03:57:46;14.10;;;5.13;;
69979;SDS011;57318;56.232;43.944;2023-04-21T04:00:12;19.57;;;6.00;;
69979;SDS011;57318;56.232;43.944;2023-04-21T04:02:39;16.98;;;5.00;;
69979;SDS011;57318;56.232;43.944;2023-04-21T04:05:05;16.95;;;4.95;;
69979;SDS011;57318;56.232;43.944;2023-04-21T04:07:31;14.00;;;4.75;;
69979;SDS011;57318;56.232;43.944;2023-04-21T04:09:57;9.55;;;5.50;;
69979;SDS011;57318;56.232;43.944;2023-04-21T04:12:23;14.50;;;5.30;;
69979;SDS011;57318;56.232;43.944;2023-04-21T04:14:49;11.63;;;5.57;;
69979;SDS011;57318;56.232;43.944;2023-04-21T04:17:15;11.83;;;5.13;;
69979;SDS011;57318;56.232;43.944;2023-04-21T04:19:40;18.37;;;5.67;;
69979;SDS011;57318;56.232;43.944;2023-04-21T04:22:07;14.63;;;5.50;;
69979;SDS011;57318;56.232;43.944;2023-04-21T04:24:32;10.67;;;4.80;;
69979;SDS011;57318;56.232;43.944;2023-04-21T04:26:58;13.17;;;4.67;;
69979;SDS011;57318;56.232;43.944;2023-04-21T04:29:26;10.32;;;4.10;;
69979;SDS011;57318;56.232;43.944;2023-04-21T04:31:52;8.67;;;4.57;;
69979;SDS011;57318;56.232;43.944;2023-04-21T04:34:18;14.20;;;4.87;;
69979;SDS011;57318;56.232;43.944;2023-04-21T04:36:44;7.18;;;4.30;;
69979;SDS011;57318;56.232;43.944;2023-04-21T04:39:10;14.07;;;4.43;;
69979;SDS011;57318;56.232;43.944;2023-04-21T04:41:36;10.25;;;4.18;;
69979;SDS011;57318;56.232;43.944;2023-04-21T04:44:02;9.82;;;4.10;;
69979;SDS011;57318;56.232;43.944;2023-04-21T04:46:32;9.57;;;4.20;;
69979;SDS011;57318;56.232;43.944;2023-04-21T04:49:01;15.68;;;4.60;;
69979;SDS011;57318;56.232;43.944;2023-04-21T04:51:28;11.20;;;4.75;;
69979;SDS011;57318;56.232;43.944;2023-04-21T04:53:54;14.13;;;4.45;;
69979;SDS011;57318;56.232;43.944;2023-04-21T04:56:20;14.50;;;4.60;;
69979;SDS011;57318;56.232;43.944;2023-04-21T04:58:46;15.82;;;5.20;;
69979;SDS011;57318;56.232;43.944;2023-04-21T05:01:15;15.73;;;6.37;;
69979;SDS011;57318;56.232;43.944;2023-04-21T05:03:41;19.17;;;6.07;;
69979;SDS011;57318;56.232;43.944;2023-04-21T05:06:07;14.95;;;5.93;;
69979;SDS011;57318;56.232;43.944;2023-04-21T05:08:34;15.25;;;6.03;;
69979;SDS011;57318;56.232;43.944;2023-04-21T05:11:00;14.25;;;6.18;;
69979;SDS011;57318;56.232;43.944;2023-04-21T05:13:25;12.53;;;6.83;;
69979;SDS011;57318;56.232;43.944;2023-04-21T05:15:57;12.03;;;6.10;;
69979;SDS011;57318;56.232;43.944;2023-04-21T05:18:26;18.40;;;5.85;;
69979;SDS011;57318;56.232;43.944;2023-04-21T05:23:18;14.07;;;5.28;;
69979;SDS011;57318;56.232;43.944;2023-04-21T05:25:45;9.95;;;4.70;;
69979;SDS011;57318;56.232;43.944;2023-04-21T05:28:11;12.20;;;5.22;;
69979;SDS011;57318;56.232;43.944;2023-04-21T05:30:36;18.17;;;7.53;;
69979;SDS011;57318;56.232;43.944;2023-04-21T05:33:02;9.10;;;5.13;;
69979;SDS011;57318;56.232;43.944;2023-04-21T05:35:31;11.17;;;4.87;;
69979;SDS011;57318;56.232;43.944;2023-04-21T05:37:58;9.10;;;5.10;;
69979;SDS011;57318;56.232;43.944;2023-04-21T05:40:23;9.93;;;5.00;;
69979;SDS011;57318;56.232;43.944;2023-04-21T05:42:49;10.03;;;5.23;;
69979;SDS011;57318;56.232;43.944;2023-04-21T05:45:15;16.57;;;5.10;;
69979;SDS011;57318;56.232;43.944;2023-04-21T05:47:41;15.67;;;4.47;;
69979;SDS011;57318;56.232;43.944;2023-04-21T05:50:06;7.37;;;4.10;;
69979;SDS011;57318;56.232;43.944;2023-04-21T05:52:32;14.52;;;3.83;;
69979;SDS011;57318;56.232;43.944;2023-04-21T05:54:59;11.60;;;4.38;;
69979;SDS011;57318;56.232;43.944;2023-04-21T05:57:25;7.68;;;4.65;;
69979;SDS011;57318;56.232;43.944;2023-04-21T05:59:51;10.90;;;4.73;;
69979;SDS011;57318;56.232;43.944;2023-04-21T06:02:17;11.80;;;5.00;;
69979;SDS011;57318;56.232;43.944;2023-04-21T06:04:42;12.40;;;4.83;;
69979;SDS011;57318;56.232;43.944;2023-04-21T06:07:08;7.78;;;4.57;;
69979;SDS011;57318;56.232;43.944;2023-04-21T06:09:38;11.57;;;4.75;;
69979;SDS011;57318;56.232;43.944;2023-04-21T06:12:04;8.93;;;5.50;;
69979;SDS011;57318;56.232;43.944;2023-04-21T06:14:30;21.48;;;6.43;;
69979;SDS011;57318;56.232;43.944;2023-04-21T06:16:56;9.82;;;5.38;;
69979;SDS011;57318;56.232;43.944;2023-04-21T06:21:48;10.35;;;4.38;;
69979;SDS011;57318;56.232;43.944;2023-04-21T06:24:15;7.70;;;3.97;;
69979;SDS011;57318;56.232;43.944;2023-04-21T06:26:41;9.10;;;4.15;;
69979;SDS011;57318;56.232;43.944;2023-04-21T06:29:07;6.60;;;3.83;;
69979;SDS011;57318;56.232;43.944;2023-04-21T06:31:32;8.23;;;4.60;;
69979;SDS011;57318;56.232;43.944;2023-04-21T06:33:58;7.93;;;4.13;;
69979;SDS011;57318;56.232;43.944;2023-04-21T06:36:24;13.27;;;4.60;;
69979;SDS011;57318;56.232;43.944;2023-04-21T06:38:49;10.15;;;4.15;;
69979;SDS011;57318;56.232;43.944;2023-04-21T06:41:16;7.68;;;3.97;;
69979;SDS011;57318;56.232;43.944;2023-04-21T06:43:42;7.93;;;4.18;;
69979;SDS011;57318;56.232;43.944;2023-04-21T06:46:07;7.80;;;4.32;;
69979;SDS011;57318;56.232;43.944;2023-04-21T06:50:59;6.32;;;4.07;;
69979;SDS011;57318;56.232;43.944;2023-04-21T06:53:27;7.15;;;4.00;;
69979;SDS011;57318;56.232;43.944;2023-04-21T06:55:53;6.57;;;3.75;;
69979;SDS011;57318;56.232;43.944;2023-04-21T06:58:19;7.47;;;4.00;;
69979;SDS011;57318;56.232;43.944;2023-04-21T07:00:44;4.93;;;3.90;;
69979;SDS011;57318;56.232;43.944;2023-04-21T07:03:10;6.32;;;3.70;;
69979;SDS011;57318;56.232;43.944;2023-04-21T07:05:36;5.65;;;3.60;;
69979;SDS011;57318;56.232;43.944;2023-04-21T07:08:02;6.03;;;4.18;;
69979;SDS011;57318;56.232;43.944;2023-04-21T07:10:28;8.13;;;4.07;;
69979;SDS011;57318;56.232;43.944;2023-04-21T07:12:54;9.90;;;4.80;;
69979;SDS011;57318;56.232;43.944;2023-04-21T07:15:20;8.10;;;3.67;;
69979;SDS011;57318;56.232;43.944;2023-04-21T07:17:46;7.15;;;3.30;;
69979;SDS011;57318;56.232;43.944;2023-04-21T07:20:12;7.10;;;3.50;;
69979;SDS011;57318;56.232;43.944;2023-04-21T07:22:37;8.32;;;3.38;;
69979;SDS011;57318;56.232;43.944;2023-04-21T07:25:03;5.28;;;2.90;;
69979;SDS011;57318;56.232;43.944;2023-04-21T07:27:32;3.50;;;3.20;;
69979;SDS011;57318;56.232;43.944;2023-04-21T07:30:00;4.00;;;2.97;;
69979;SDS011;57318;56.232;43.944;2023-04-21T07:32:26;5.55;;;2.97;;
69979;SDS011;57318;56.232;43.944;2023-04-21T07:34:51;4.30;;;3.30;;
69979;SDS011;57318;56.232;43.944;2023-04-21T07:37:17;4.55;;;2.60;;
69979;SDS011;57318;56.232;43.944;2023-04-21T07:39:43;4.68;;;2.97;;
69979;SDS011;57318;56.232;43.944;2023-04-21T07:42:08;2.50;;;2.30;;
69979;SDS011;57318;56.232;43.944;2023-04-21T07:44:35;5.85;;;2.55;;
69979;SDS011;57318;56.232;43.944;2023-04-21T07:47:02;4.35;;;2.83;;
69979;SDS011;57318;56.232;43.944;2023-04-21T07:49:28;6.43;;;2.92;;
69979;SDS011;57318;56.232;43.944;2023-04-21T07:51:53;4.75;;;2.40;;
69979;SDS011;57318;56.232;43.944;2023-04-21T07:54:19;4.78;;;2.50;;
69979;SDS011;57318;56.232;43.944;2023-04-21T07:56:45;4.50;;;2.75;;
69979;SDS011;57318;56.232;43.944;2023-04-21T07:59:11;6.60;;;3.08;;
69979;SDS011;57318;56.232;43.944;2023-04-21T08:01:37;3.30;;;3.00;;
69979;SDS011;57318;56.232;43.944;2023-04-21T08:04:02;5.00;;;2.95;;
69979;SDS011;57318;56.232;43.944;2023-04-21T08:06:28;8.85;;;3.25;;
69979;SDS011;57318;56.232;43.944;2023-04-21T08:08:54;3.55;;;2.78;;
69979;SDS011;57318;56.232;43.944;2023-04-21T08:11:20;4.60;;;3.08;;
69979;SDS011;57318;56.232;43.944;2023-04-21T08:13:46;3.75;;;3.00;;
69979;SDS011;57318;56.232;43.944;2023-04-21T08:16:12;6.82;;;3.30;;
69979;SDS011;57318;56.232;43.944;2023-04-21T08:18:38;4.45;;;3.00;;
69979;SDS011;57318;56.232;43.944;2023-04-21T08:21:04;9.07;;;2.97;;
69979;SDS011;57318;56.232;43.944;2023-04-21T08:23:30;6.97;;;3.55;;
69979;SDS011;57318;56.232;43.944;2023-04-21T08:25:56;6.93;;;3.63;;
69979;SDS011;57318;56.232;43.944;2023-04-21T08:28:21;3.88;;;3.13;;
69979;SDS011;57318;56.232;43.944;2023-04-21T08:30:47;11.10;;;3.42;;
69979;SDS011;57318;56.232;43.944;2023-04-21T08:33:13;6.82;;;3.20;;
69979;SDS011;57318;56.232;43.944;2023-04-21T08:35:39;5.03;;;3.20;;
69979;SDS011;57318;56.232;43.944;2023-04-21T08:38:06;6.90;;;3.15;;
69979;SDS011;57318;56.232;43.944;2023-04-21T08:40:34;7.53;;;3.13;;
69979;SDS011;57318;56.232;43.944;2023-04-21T08:43:03;6.97;;;3.75;;
69979;SDS011;57318;56.232;43.944;2023-04-21T08:45:30;17.77;;;4.45;;
69979;SDS011;57318;56.232;43.944;2023-04-21T08:47:56;14.05;;;3.70;;
69979;SDS011;57318;56.232;43.944;2023-04-21T08:50:25;7.30;;;3.42;;
69979;SDS011;57318;56.232;43.944;2023-04-21T08:52:53;4.32;;;3.90;;
69979;SDS011;57318;56.232;43.944;2023-04-21T08:55:23;7.28;;;3.97;;
69979;SDS011;57318;56.232;43.944;2023-04-21T08:57:54;5.25;;;4.13;;
69979;SDS011;57318;56.232;43.944;2023-04-21T09:00:20;6.10;;;4.20;;
69979;SDS011;57318;56.232;43.944;2023-04-21T09:03:04;6.85;;;4.03;;
69979;SDS011;57318;56.232;43.944;2023-04-21T09:05:32;7.10;;;3.80;;
69979;SDS011;57318;56.232;43.944;2023-04-21T09:08:06;6.13;;;4.03;;
69979;SDS011;57318;56.232;43.944;2023-04-21T09:10:45;10.50;;;4.20;;
69979;SDS011;57318;56.232;43.944;2023-04-21T09:13:13;6.10;;;4.40;;
69979;SDS011;57318;56.232;43.944;2023-04-21T09:15:40;4.38;;;3.78;;
69979;SDS011;57318;56.232;43.944;2023-04-21T09:18:15;7.45;;;4.05;;
69979;SDS011;57318;56.232;43.944;2023-04-21T09:20:42;4.15;;;3.33;;
69979;SDS011;57318;56.232;43.944;2023-04-21T09:23:10;11.65;;;4.25;;
69979;SDS011;57318;56.232;43.944;2023-04-21T09:25:39;7.18;;;3.80;;
69979;SDS011;57318;56.232;43.944;2023-04-21T09:28:06;8.30;;;4.18;;
69979;SDS011;57318;56.232;43.944;2023-04-21T09:30:33;5.80;;;4.28;;
69979;SDS011;57318;56.232;43.944;2023-04-21T09:33:03;6.63;;;4.18;;
69979;SDS011;57318;56.232;43.944;2023-04-21T09:35:33;7.30;;;4.30;;
69979;SDS011;57318;56.232;43.944;2023-04-21T09:38:01;10.20;;;4.55;;
69979;SDS011;57318;56.232;43.944;2023-04-21T09:40:30;7.95;;;4.30;;
69979;SDS011;57318;56.232;43.944;2023-04-21T09:42:56;4.78;;;4.28;;
69979;SDS011;57318;56.232;43.944;2023-04-21T09:45:26;5.35;;;4.43;;
69979;SDS011;57318;56.232;43.944;2023-04-21T09:47:56;14.63;;;4.63;;
69979;SDS011;57318;56.232;43.944;2023-04-21T09:50:24;10.65;;;5.25;;
69979;SDS011;57318;56.232;43.944;2023-04-21T09:52:51;5.43;;;4.57;;
69979;SDS011;57318;56.232;43.944;2023-04-21T09:55:18;6.80;;;4.40;;
69979;SDS011;57318;56.232;43.944;2023-04-21T09:57:58;6.00;;;4.68;;
69979;SDS011;57318;56.232;43.944;2023-04-21T10:00:27;5.45;;;4.43;;
69979;SDS011;57318;56.232;43.944;2023-04-21T10:02:54;5.57;;;4.70;;
69979;SDS011;57318;56.232;43.944;2023-04-21T10:05:22;5.60;;;4.93;;
69979;SDS011;57318;56.232;43.944;2023-04-21T10:07:48;8.93;;;5.05;;
69979;SDS011;57318;56.232;43.944;2023-04-21T10:12:51;5.50;;;4.72;;
69979;SDS011;57318;56.232;43.944;2023-04-21T10:15:33;5.20;;;4.60;;
69979;SDS011;57318;56.232;43.944;2023-04-21T10:18:16;5.73;;;4.77;;
69979;SDS011;57318;56.232;43.944;2023-04-21T10:23:35;7.22;;;4.55;;
69979;SDS011;57318;56.232;43.944;2023-04-21T10:39:10;9.60;;;5.13;;
69979;SDS011;57318;56.232;43.944;2023-04-21T10:41:37;7.90;;;4.70;;
69979;SDS011;57318;56.232;43.944;2023-04-21T10:46:40;5.82;;;4.72;;
69979;SDS011;57318;56.232;43.944;2023-04-21T10:52:09;7.43;;;4.93;;
69979;SDS011;57318;56.232;43.944;2023-04-21T10:57:13;5.50;;;4.88;;
69979;SDS011;57318;56.232;43.944;2023-04-21T10:59:43;8.05;;;5.20;;
69979;SDS011;57318;56.232;43.944;2023-04-21T11:02:10;9.63;;;5.00;;
69979;SDS011;57318;56.232;43.944;2023-04-21T11:04:37;11.35;;;5.65;;
69979;SDS011;57318;56.232;43.944;2023-04-21T11:07:24;13.52;;;5.55;;
69979;SDS011;57318;56.232;43.944;2023-04-21T11:09:57;7.18;;;5.32;;
69979;SDS011;57318;56.232;43.944;2023-04-21T11:14:54;6.07;;;4.55;;
69979;SDS011;57318;56.232;43.944;2023-04-21T11:17:20;13.40;;;5.35;;
69979;SDS011;57318;56.232;43.944;2023-04-21T11:22:18;8.80;;;5.15;;
69979;SDS011;57318;56.232;43.944;2023-04-21T11:24:48;5.80;;;4.85;;
69979;SDS011;57318;56.232;43.944;2023-04-21T11:27:15;5.80;;;4.97;;
69979;SDS011;57318;56.232;43.944;2023-04-21T11:29:44;5.22;;;4.70;;
69979;SDS011;57318;56.232;43.944;2023-04-21T11:32:10;5.15;;;4.65;;
69979;SDS011;57318;56.232;43.944;2023-04-21T11:34:37;7.60;;;5.00;;
69979;SDS011;57318;56.232;43.944;2023-04-21T11:37:03;7.47;;;4.88;;
69979;SDS011;57318;56.232;43.944;2023-04-21T11:39:31;7.18;;;4.90;;
69979;SDS011;57318;56.232;43.944;2023-04-21T11:41:57;5.78;;;4.45;;
69979;SDS011;57318;56.232;43.944;2023-04-21T11:44:30;9.45;;;4.78;;
69979;SDS011;57318;56.232;43.944;2023-04-21T11:46:57;10.13;;;4.53;;
69979;SDS011;57318;56.232;43.944;2023-04-21T11:49:26;5.50;;;4.80;;
69979;SDS011;57318;56.232;43.944;2023-04-21T11:51:53;5.85;;;4.70;;
69979;SDS011;57318;56.232;43.944;2023-04-21T11:54:20;6.75;;;5.00;;
69979;SDS011;57318;56.232;43.944;2023-04-21T11:56:49;7.80;;;4.63;;
69979;SDS011;57318;56.232;43.944;2023-04-21T11:59:16;7.30;;;4.78;;
69979;SDS011;57318;56.232;43.944;2023-04-21T12:01:49;5.93;;;4.65;;
69979;SDS011;57318;56.232;43.944;2023-04-21T12:04:18;8.35;;;4.43;;
69979;SDS011;57318;56.232;43.944;2023-04-21T12:06:46;5.85;;;4.45;;
69979;SDS011;57318;56.232;43.944;2023-04-21T12:09:19;7.00;;;4.45;;
69979;SDS011;57318;56.232;43.944;2023-04-21T12:11:50;7.85;;;4.95;;
69979;SDS011;57318;56.232;43.944;2023-04-21T12:14:17;13.02;;;4.95;;
69979;SDS011;57318;56.232;43.944;2023-04-21T12:16:46;8.52;;;4.68;;
69979;SDS011;57318;56.232;43.944;2023-04-21T12:19:24;5.55;;;4.13;;
69979;SDS011;57318;56.232;43.944;2023-04-21T12:22:00;5.47;;;4.28;;
69979;SDS011;57318;56.232;43.944;2023-04-21T12:24:26;5.10;;;4.35;;
69979;SDS011;57318;56.232;43.944;2023-04-21T12:26:52;8.63;;;5.00;;
69979;SDS011;57318;56.232;43.944;2023-04-21T12:29:18;6.43;;;4.72;;
69979;SDS011;57318;56.232;43.944;2023-04-21T12:34:09;14.50;;;5.85;;
69979;SDS011;57318;56.232;43.944;2023-04-21T12:36:35;12.57;;;5.00;;
69979;SDS011;57318;56.232;43.944;2023-04-21T12:39:01;9.15;;;4.60;;
69979;SDS011;57318;56.232;43.944;2023-04-21T12:43:52;8.25;;;4.97;;
69979;SDS011;57318;56.232;43.944;2023-04-21T12:46:18;9.32;;;4.03;;
69979;SDS011;57318;56.232;43.944;2023-04-21T12:51:09;5.22;;;4.20;;
69979;SDS011;57318;56.232;43.944;2023-04-21T12:56:01;8.52;;;4.10;;
69979;SDS011;57318;56.232;43.944;2023-04-21T12:58:27;10.82;;;3.83;;
69979;SDS011;57318;56.232;43.944;2023-04-21T13:00:53;5.78;;;4.20;;
69979;SDS011;57318;56.232;43.944;2023-04-21T13:03:19;7.22;;;3.95;;
69979;SDS011;57318;56.232;43.944;2023-04-21T13:05:46;28.95;;;5.25;;
69979;SDS011;57318;56.232;43.944;2023-04-21T13:08:12;8.63;;;4.30;;
69979;SDS011;57318;56.232;43.944;2023-04-21T13:10:38;11.13;;;4.47;;
69979;SDS011;57318;56.232;43.944;2023-04-21T13:13:04;7.80;;;4.25;;
69979;SDS011;57318;56.232;43.944;2023-04-21T13:15:30;7.68;;;3.90;;
69979;SDS011;57318;56.232;43.944;2023-04-21T13:17:55;11.13;;;4.05;;
69979;SDS011;57318;56.232;43.944;2023-04-21T13:20:21;5.05;;;3.83;;
69979;SDS011;57318;56.232;43.944;2023-04-21T13:22:47;3.80;;;3.40;;
69979;SDS011;57318;56.232;43.944;2023-04-21T13:25:13;4.93;;;3.78;;
69979;SDS011;57318;56.232;43.944;2023-04-21T13:27:39;7.50;;;4.15;;
69979;SDS011;57318;56.232;43.944;2023-04-21T13:30:05;5.60;;;4.40;;
69979;SDS011;57318;56.232;43.944;2023-04-21T13:32:32;14.48;;;4.10;;
69979;SDS011;57318;56.232;43.944;2023-04-21T13:34:58;7.05;;;4.00;;
69979;SDS011;57318;56.232;43.944;2023-04-21T13:37:24;4.95;;;3.65;;
69979;SDS011;57318;56.232;43.944;2023-04-21T13:39:50;5.20;;;3.47;;
69979;SDS011;57318;56.232;43.944;2023-04-21T13:42:16;8.60;;;4.55;;
69979;SDS011;57318;56.232;43.944;2023-04-21T13:44:41;7.47;;;4.10;;
69979;SDS011;57318;56.232;43.944;2023-04-21T13:47:07;5.60;;;3.47;;
69979;SDS011;57318;56.232;43.944;2023-04-21T13:51:59;5.65;;;3.70;;
69979;SDS011;57318;56.232;43.944;2023-04-21T13:56:50;9.05;;;3.70;;
69979;SDS011;57318;56.232;43.944;2023-04-21T14:01:42;19.75;;;4.40;;
69979;SDS011;57318;56.232;43.944;2023-04-21T14:06:33;9.32;;;3.97;;
69979;SDS011;57318;56.232;43.944;2023-04-21T14:08:59;6.72;;;3.50;;
69979;SDS011;57318;56.232;43.944;2023-04-21T14:13:50;8.25;;;3.95;;
69979;SDS011;57318;56.232;43.944;2023-04-21T14:18:41;8.32;;;4.18;;
69979;SDS011;57318;56.232;43.944;2023-04-21T14:21:12;5.78;;;3.17;;
69979;SDS011;57318;56.232;43.944;2023-04-21T14:23:37;4.53;;;3.33;;
69979;SDS011;57318;56.232;43.944;2023-04-21T14:26:03;6.97;;;4.25;;
69979;SDS011;57318;56.232;43.944;2023-04-21T14:28:30;10.40;;;4.53;;
69979;SDS011;57318;56.232;43.944;2023-04-21T14:31:01;5.25;;;3.00;;
69979;SDS011;57318;56.232;43.944;2023-04-21T14:33:30;7.07;;;3.40;;
69979;SDS011;57318;56.232;43.944;2023-04-21T14:35:57;11.23;;;4.07;;
69979;SDS011;57318;56.232;43.944;2023-04-21T14:38:23;8.48;;;3.17;;
69979;SDS011;57318;56.232;43.944;2023-04-21T14:40:50;6.20;;;3.35;;
69979;SDS011;57318;56.232;43.944;2023-04-21T14:43:19;5.43;;;3.20;;
69979;SDS011;57318;56.232;43.944;2023-04-21T14:45:45;10.60;;;3.75;;
69979;SDS011;57318;56.232;43.944;2023-04-21T14:48:11;7.18;;;3.60;;
69979;SDS011;57318;56.232;43.944;2023-04-21T14:50:38;8.27;;;3.08;;
69979;SDS011;57318;56.232;43.944;2023-04-21T14:53:05;10.10;;;3.10;;
69979;SDS011;57318;56.232;43.944;2023-04-21T14:55:31;6.82;;;3.10;;
69979;SDS011;57318;56.232;43.944;2023-04-21T14:57:57;9.60;;;3.30;;
69979;SDS011;57318;56.232;43.944;2023-04-21T15:00:23;7.43;;;3.20;;
69979;SDS011;57318;56.232;43.944;2023-04-21T15:02:50;10.13;;;3.30;;
69979;SDS011;57318;56.232;43.944;2023-04-21T15:05:16;9.93;;;3.60;;
69979;SDS011;57318;56.232;43.944;2023-04-21T15:10:08;5.53;;;3.00;;
69979;SDS011;57318;56.232;43.944;2023-04-21T15:12:37;4.10;;;2.95;;
69979;SDS011;57318;56.232;43.944;2023-04-21T15:15:04;6.28;;;2.90;;
69979;SDS011;57318;56.232;43.944;2023-04-21T15:17:30;7.38;;;4.55;;
69979;SDS011;57318;56.232;43.944;2023-04-21T15:19:56;13.23;;;4.30;;
69979;SDS011;57318;56.232;43.944;2023-04-21T15:22:22;8.33;;;3.20;;
69979;SDS011;57318;56.232;43.944;2023-04-21T15:24:48;7.47;;;3.10;;
69979;SDS011;57318;56.232;43.944;2023-04-21T15:27:14;8.52;;;3.15;;
69979;SDS011;57318;56.232;43.944;2023-04-21T15:29:40;8.25;;;3.55;;
69979;SDS011;57318;56.232;43.944;2023-04-21T15:32:06;18.20;;;3.67;;
69979;SDS011;57318;56.232;43.944;2023-04-21T15:34:32;14.90;;;3.97;;
69979;SDS011;57318;56.232;43.944;2023-04-21T15:36:57;6.87;;;3.20;;